Time;durP1;ratioP1;P1;durP2;ratioP2;P2;SDS_P1;SDS_P2;PMS_P1;PMS_P2;Temp;Humidity;BMP_temperature;BMP_pressure;BME280_temperature;BME280_humidity;BME280_pressure;Samples;Min_cycle;Max_cycle;Signal;HPM_P1;HPM_P2
2021/05/23 00:00:29;;;;;;;17.88;0.95;;;;;;;;;;4905836;29;20025;-39
2021/05/23 00:02:58;;;;;;;11.13;1.08;;;;;;;;;;4909946;29;20052;-39
2021/05/23 00:05:27;;;;;;;13.35;1.23;;;;;;;;;;4892483;29;20032;-43
2021/05/23 00:07:56;;;;;;;11.15;1.40;;;;;;;;;;4911963;29;20100;-46
2021/05/23 00:10:24;;;;;;;13.55;1.73;;;;;;;;;;4922481;29;20059;-41
2021/05/23 00:12:52;;;;;;;10.77;0.90;;;;;;;;;;4926877;29;20044;-41
2021/05/23 00:15:22;;;;;;;13.20;1.02;;;;;;;;;;4930472;29;20174;-43
2021/05/23 00:17:49;;;;;;;9.05;1.00;;;;;;;;;;4928284;29;20032;-47
2021/05/23 00:20:16;;;;;;;13.55;1.23;;;;;;;;;;4922154;29;20055;-39
2021/05/23 00:22:44;;;;;;;16.95;1.10;;;;;;;;;;4918786;29;20024;-36
2021/05/23 00:25:13;;;;;;;14.70;1.60;;;;;;;;;;4928864;29;20024;-40
2021/05/23 00:27:41;;;;;;;13.27;1.55;;;;;;;;;;4923371;29;20031;-39
2021/05/23 00:30:10;;;;;;;11.38;0.90;;;;;;;;;;4928254;29;20945;-43
2021/05/23 00:32:38;;;;;;;9.60;1.02;;;;;;;;;;4928109;29;20121;-46
2021/05/23 00:35:06;;;;;;;11.80;1.20;;;;;;;;;;4929386;29;20039;-38
2021/05/23 00:37:39;;;;;;;15.57;1.20;;;;;;;;;;4922415;29;20028;-47
2021/05/23 00:40:09;;;;;;;10.05;1.27;;;;;;;;;;4916109;29;20399;-43
2021/05/23 00:42:37;;;;;;;12.93;1.00;;;;;;;;;;4923598;29;20106;-42
2021/05/23 00:45:08;;;;;;;12.68;1.45;;;;;;;;;;4933025;29;20684;-42
2021/05/23 00:47:36;;;;;;;16.40;1.42;;;;;;;;;;4924212;29;20118;-44
2021/05/23 00:50:05;;;;;;;9.75;1.40;;;;;;;;;;4923057;29;20036;-37
2021/05/23 00:52:33;;;;;;;12.85;1.63;;;;;;;;;;4930194;29;20063;-39
2021/05/23 00:55:01;;;;;;;13.50;1.70;;;;;;;;;;4924190;29;20118;-55
2021/05/23 00:57:29;;;;;;;14.68;1.90;;;;;;;;;;4921606;29;20476;-52
2021/05/23 00:59:57;;;;;;;16.20;1.80;;;;;;;;;;4928995;29;20044;-53
2021/05/23 01:02:42;;;;;;;14.57;1.33;;;;;;;;;;4928451;29;20032;-45
2021/05/23 01:05:11;;;;;;;12.50;1.35;;;;;;;;;;4925045;29;20479;-43
2021/05/23 01:07:40;;;;;;;8.48;1.23;;;;;;;;;;4916495;29;20107;-50
2021/05/23 01:10:11;;;;;;;3.85;0.80;;;;;;;;;;4926357;29;20070;-44
2021/05/23 01:12:38;;;;;;;11.87;1.43;;;;;;;;;;4925833;29;20133;-45
2021/05/23 01:15:05;;;;;;;13.90;1.27;;;;;;;;;;4930414;29;20028;-55
2021/05/23 01:17:38;;;;;;;12.13;1.67;;;;;;;;;;4928240;29;20462;-43
2021/05/23 01:20:23;;;;;;;28.42;2.45;;;;;;;;;;4926681;29;20043;-45
2021/05/23 01:22:55;;;;;;;14.88;2.13;;;;;;;;;;4930169;29;20426;-45
2021/05/23 01:25:24;;;;;;;18.33;2.72;;;;;;;;;;4920169;29;20816;-42
2021/05/23 01:27:52;;;;;;;15.20;2.25;;;;;;;;;;4916304;29;20024;-43
2021/05/23 01:30:21;;;;;;;21.33;2.95;;;;;;;;;;4927745;29;20028;-42
2021/05/23 01:32:49;;;;;;;17.20;2.47;;;;;;;;;;4924477;29;20090;-54
2021/05/23 01:35:18;;;;;;;24.92;3.75;;;;;;;;;;4924211;29;20044;-53
2021/05/23 01:37:55;;;;;;;41.33;8.23;;;;;;;;;;4912060;29;20071;-49
2021/05/23 01:40:22;;;;;;;47.17;9.63;;;;;;;;;;4915867;29;20028;-53
2021/05/23 01:42:49;;;;;;;46.60;9.93;;;;;;;;;;4927015;29;20035;-42
2021/05/23 01:45:16;;;;;;;44.65;11.70;;;;;;;;;;4929244;29;20035;-46
2021/05/23 01:47:44;;;;;;;43.22;10.55;;;;;;;;;;4927416;29;20491;-42
2021/05/23 01:50:11;;;;;;;61.75;19.25;;;;;;;;;;4914364;29;20046;-40
2021/05/23 01:52:49;;;;;;;68.93;18.58;;;;;;;;;;4924880;29;20032;-43
2021/05/23 01:55:16;;;;;;;66.47;19.13;;;;;;;;;;4929980;29;20071;-45
2021/05/23 01:57:44;;;;;;;65.25;20.38;;;;;;;;;;4924652;29;20024;-42
2021/05/23 02:00:11;;;;;;;61.70;19.50;;;;;;;;;;4923269;29;20024;-41
2021/05/23 02:02:38;;;;;;;61.97;19.23;;;;;;;;;;4929305;29;20103;-41
2021/05/23 02:05:06;;;;;;;64.03;18.83;;;;;;;;;;4925325;29;20031;-39
2021/05/23 02:07:34;;;;;;;53.30;17.30;;;;;;;;;;4929204;29;20108;-44
2021/05/23 02:10:02;;;;;;;62.05;18.02;;;;;;;;;;4917896;29;20404;-45
2021/05/23 02:12:29;;;;;;;65.68;18.02;;;;;;;;;;4920844;29;20058;-44
2021/05/23 02:14:56;;;;;;;59.75;16.50;;;;;;;;;;4928870;29;20038;-40
2021/05/23 02:17:23;;;;;;;54.75;16.58;;;;;;;;;;4912985;29;20797;-46
2021/05/23 02:19:51;;;;;;;46.05;16.83;;;;;;;;;;4906436;29;20028;-42
2021/05/23 02:22:18;;;;;;;49.45;15.60;;;;;;;;;;4931106;29;20484;-39
2021/05/23 02:24:45;;;;;;;59.50;14.43;;;;;;;;;;4921345;29;20039;-40
2021/05/23 02:27:13;;;;;;;46.78;13.93;;;;;;;;;;4925678;29;20480;-45
2021/05/23 02:29:40;;;;;;;49.20;13.95;;;;;;;;;;4931716;29;20028;-37
2021/05/23 02:32:08;;;;;;;52.33;14.32;;;;;;;;;;4947517;29;20039;-48
2021/05/23 02:34:45;;;;;;;47.33;13.32;;;;;;;;;;4930418;29;20167;-42
2021/05/23 02:37:12;;;;;;;42.45;12.18;;;;;;;;;;4923390;29;20024;-49
2021/05/23 02:39:39;;;;;;;57.05;13.95;;;;;;;;;;4918936;29;20036;-43
2021/05/23 02:42:07;;;;;;;41.50;11.65;;;;;;;;;;4929370;29;20036;-36
2021/05/23 02:44:34;;;;;;;41.72;11.75;;;;;;;;;;4929430;29;20059;-35
2021/05/23 02:47:02;;;;;;;49.28;11.02;;;;;;;;;;4929431;29;20037;-45
2021/05/23 02:49:29;;;;;;;45.70;11.13;;;;;;;;;;4935318;29;20027;-40
2021/05/23 02:51:56;;;;;;;44.55;10.52;;;;;;;;;;4934932;29;20039;-42
2021/05/23 02:54:24;;;;;;;38.20;9.98;;;;;;;;;;4935657;29;20024;-52
2021/05/23 02:56:52;;;;;;;32.80;9.55;;;;;;;;;;4927927;29;20039;-45
2021/05/23 02:59:19;;;;;;;33.47;9.93;;;;;;;;;;4924981;29;20043;-45
2021/05/23 03:01:47;;;;;;;28.67;8.95;;;;;;;;;;4932934;29;20028;-39
2021/05/23 03:04:14;;;;;;;25.50;7.82;;;;;;;;;;4936077;29;20038;-38
2021/05/23 03:06:42;;;;;;;30.30;9.10;;;;;;;;;;4935653;29;20651;-45
2021/05/23 03:09:10;;;;;;;33.67;8.20;;;;;;;;;;4935609;29;20114;-49
2021/05/23 03:11:37;;;;;;;37.90;8.23;;;;;;;;;;4927634;29;20035;-44
2021/05/23 03:14:05;;;;;;;29.27;8.05;;;;;;;;;;4934084;29;20431;-41
2021/05/23 03:16:33;;;;;;;26.25;7.70;;;;;;;;;;4934707;29;20023;-52
2021/05/23 03:19:01;;;;;;;29.20;7.70;;;;;;;;;;4934832;29;20036;-56
2021/05/23 03:21:29;;;;;;;25.08;7.18;;;;;;;;;;4942126;29;20097;-52
2021/05/23 03:23:56;;;;;;;30.48;7.28;;;;;;;;;;4941299;29;20467;-38
2021/05/23 03:26:24;;;;;;;23.38;7.25;;;;;;;;;;4931873;29;20051;-49
2021/05/23 03:28:52;;;;;;;27.65;7.70;;;;;;;;;;4927324;29;20036;-54
2021/05/23 03:31:20;;;;;;;25.02;6.57;;;;;;;;;;4930405;29;20024;-56
2021/05/23 03:33:48;;;;;;;28.13;7.07;;;;;;;;;;4934014;29;20055;-43
2021/05/23 03:36:16;;;;;;;24.98;6.97;;;;;;;;;;4934342;29;20038;-46
2021/05/23 03:38:45;;;;;;;24.92;6.38;;;;;;;;;;4923386;29;20036;-44
2021/05/23 03:41:13;;;;;;;24.92;5.40;;;;;;;;;;4928605;29;20031;-48
2021/05/23 03:43:40;;;;;;;19.48;5.60;;;;;;;;;;4917564;29;20485;-55
2021/05/23 03:46:09;;;;;;;25.48;6.20;;;;;;;;;;4918383;29;20487;-45
2021/05/23 03:48:37;;;;;;;18.75;5.22;;;;;;;;;;4918861;29;20028;-40
2021/05/23 03:51:05;;;;;;;19.13;5.22;;;;;;;;;;4919250;29;20030;-50
2021/05/23 03:53:33;;;;;;;24.08;5.78;;;;;;;;;;4921241;29;20055;-45
2021/05/23 03:56:00;;;;;;;16.63;5.15;;;;;;;;;;4929774;29;20503;-49
2021/05/23 03:58:28;;;;;;;17.05;4.53;;;;;;;;;;4928744;29;20064;-52
2021/05/23 04:00:56;;;;;;;18.10;4.85;;;;;;;;;;4923272;29;20119;-47
2021/05/23 04:03:28;;;;;;;20.55;5.38;;;;;;;;;;4923700;29;20028;-47
2021/05/23 04:05:57;;;;;;;16.90;5.60;;;;;;;;;;4918694;29;20095;-45
2021/05/23 04:08:25;;;;;;;12.45;4.22;;;;;;;;;;4919001;29;20703;-51
2021/05/23 04:11:17;;;;;;;18.50;4.90;;;;;;;;;;4917559;29;20386;-38
2021/05/23 04:13:41;;;;;;;17.98;4.97;;;;;;;;;;4926418;29;20082;-48
2021/05/23 04:16:15;;;;;;;14.35;4.28;;;;;;;;;;4922408;29;20610;-53
2021/05/23 04:18:43;;;;;;;14.55;4.45;;;;;;;;;;4931391;29;20035;-45
2021/05/23 04:21:11;;;;;;;14.00;4.32;;;;;;;;;;4925892;29;20115;-41
2021/05/23 04:23:39;;;;;;;15.40;3.80;;;;;;;;;;4922635;29;20024;-33
2021/05/23 04:26:07;;;;;;;16.70;4.28;;;;;;;;;;4923912;29;20455;-43
2021/05/23 04:28:35;;;;;;;13.20;3.72;;;;;;;;;;4928569;29;20020;-41
2021/05/23 04:31:02;;;;;;;12.90;3.65;;;;;;;;;;4926077;29;20041;-36
2021/05/23 04:33:30;;;;;;;10.77;3.88;;;;;;;;;;4953211;29;20102;-37
2021/05/23 04:35:58;;;;;;;8.27;3.05;;;;;;;;;;4952668;29;20035;-40
2021/05/23 04:38:25;;;;;;;10.35;3.33;;;;;;;;;;4953560;29;20031;-40
2021/05/23 04:40:53;;;;;;;12.65;3.72;;;;;;;;;;4953581;29;20031;-39
2021/05/23 04:43:21;;;;;;;8.30;3.20;;;;;;;;;;4938449;29;20662;-43
2021/05/23 04:45:49;;;;;;;12.95;3.58;;;;;;;;;;4934893;29;20066;-40
2021/05/23 04:48:17;;;;;;;12.40;3.60;;;;;;;;;;4930939;29;20476;-41
2021/05/23 04:50:44;;;;;;;11.57;4.57;;;;;;;;;;4927618;29;20040;-44
2021/05/23 04:53:12;;;;;;;13.75;3.53;;;;;;;;;;4915180;29;20032;-47
2021/05/23 04:55:39;;;;;;;9.43;3.40;;;;;;;;;;4915901;29;20028;-43
2021/05/23 04:58:07;;;;;;;10.50;3.03;;;;;;;;;;4915309;29;20083;-35
2021/05/23 05:00:35;;;;;;;11.05;3.10;;;;;;;;;;4898152;29;20032;-38
2021/05/23 05:03:03;;;;;;;11.98;3.63;;;;;;;;;;4897644;29;20403;-36
2021/05/23 05:05:31;;;;;;;10.52;3.35;;;;;;;;;;4915866;29;20028;-35
2021/05/23 05:07:59;;;;;;;10.13;3.08;;;;;;;;;;4915286;29;20032;-42
2021/05/23 05:10:26;;;;;;;11.43;3.22;;;;;;;;;;4915421;29;20149;-39
2021/05/23 05:12:54;;;;;;;7.47;2.65;;;;;;;;;;4915572;29;20032;-35
2021/05/23 05:15:21;;;;;;;6.13;2.72;;;;;;;;;;4915284;29;20048;-37
2021/05/23 05:17:49;;;;;;;6.72;2.40;;;;;;;;;;4915645;29;20131;-44
2021/05/23 05:20:16;;;;;;;5.53;2.60;;;;;;;;;;4915139;29;20046;-43
2021/05/23 05:22:44;;;;;;;7.82;2.60;;;;;;;;;;4915683;29;20028;-44
2021/05/23 05:25:12;;;;;;;9.48;2.33;;;;;;;;;;4915092;29;20484;-38
2021/05/23 05:27:39;;;;;;;9.10;2.67;;;;;;;;;;4923197;29;20083;-35
2021/05/23 05:30:07;;;;;;;7.75;2.65;;;;;;;;;;4926076;29;20024;-36
2021/05/23 05:32:37;;;;;;;7.18;2.55;;;;;;;;;;4933108;29;20028;-47
2021/05/23 05:35:05;;;;;;;7.05;2.17;;;;;;;;;;4914808;29;20079;-36
2021/05/23 05:37:32;;;;;;;9.77;2.83;;;;;;;;;;4915098;29;20039;-36
2021/05/23 05:39:59;;;;;;;10.48;2.65;;;;;;;;;;4915577;29;20036;-39
2021/05/23 05:42:26;;;;;;;7.05;2.30;;;;;;;;;;4915841;29;20051;-39
2021/05/23 05:44:53;;;;;;;5.60;2.47;;;;;;;;;;4915365;29;20027;-40
2021/05/23 05:47:20;;;;;;;6.88;2.20;;;;;;;;;;4915876;29;20028;-43
2021/05/23 05:49:47;;;;;;;9.05;2.58;;;;;;;;;;4915778;29;20032;-36
2021/05/23 05:52:15;;;;;;;5.90;2.08;;;;;;;;;;4914886;29;20539;-43
2021/05/23 05:54:42;;;;;;;6.18;2.10;;;;;;;;;;4915602;29;20683;-36
2021/05/23 05:57:09;;;;;;;7.28;2.47;;;;;;;;;;4915349;29;20017;-38
2021/05/23 05:59:36;;;;;;;7.78;2.25;;;;;;;;;;4918908;29;20036;-43
2021/05/23 06:02:03;;;;;;;6.43;2.40;;;;;;;;;;4918663;29;20024;-43
2021/05/23 06:04:30;;;;;;;6.43;2.15;;;;;;;;;;4918906;29;20027;-45
2021/05/23 06:06:57;;;;;;;7.55;1.60;;;;;;;;;;4918760;29;20028;-42
2021/05/23 06:09:24;;;;;;;7.75;2.17;;;;;;;;;;4919023;29;20408;-41
2021/05/23 06:11:51;;;;;;;6.28;2.03;;;;;;;;;;4911132;29;20020;-41
2021/05/23 06:14:18;;;;;;;3.40;1.55;;;;;;;;;;4918938;29;20396;-42
2021/05/23 06:16:45;;;;;;;4.38;1.63;;;;;;;;;;4918555;29;20563;-43
2021/05/23 06:19:12;;;;;;;3.63;1.45;;;;;;;;;;4919079;29;20095;-41
2021/05/23 06:21:39;;;;;;;5.75;1.58;;;;;;;;;;4918403;29;20445;-38
2021/05/23 06:24:06;;;;;;;4.85;1.67;;;;;;;;;;4918886;29;20396;-39
2021/05/23 06:26:33;;;;;;;5.43;1.75;;;;;;;;;;4918895;29;20031;-43
2021/05/23 06:29:00;;;;;;;7.18;1.77;;;;;;;;;;4918452;29;20424;-44
2021/05/23 06:31:27;;;;;;;5.60;1.77;;;;;;;;;;4918553;29;20119;-43
2021/05/23 06:33:56;;;;;;;4.80;1.88;;;;;;;;;;4921911;29;20028;-44
2021/05/23 06:36:24;;;;;;;3.65;1.52;;;;;;;;;;4919303;29;20036;-43
2021/05/23 06:38:51;;;;;;;4.40;1.50;;;;;;;;;;4937232;29;20036;-43
2021/05/23 06:41:18;;;;;;;4.75;1.70;;;;;;;;;;4929723;29;20043;-43
2021/05/23 06:43:45;;;;;;;3.65;1.40;;;;;;;;;;4917937;29;20492;-45
2021/05/23 06:46:12;;;;;;;3.70;1.40;;;;;;;;;;4923485;29;20038;-43
2021/05/23 06:48:39;;;;;;;5.65;1.45;;;;;;;;;;4938906;29;20407;-43
2021/05/23 06:51:06;;;;;;;4.00;1.50;;;;;;;;;;4956592;29;20062;-46
2021/05/23 06:53:33;;;;;;;2.17;1.27;;;;;;;;;;4956153;29;20050;-46
2021/05/23 06:56:01;;;;;;;4.68;1.92;;;;;;;;;;4956548;29;20058;-45
2021/05/23 06:58:28;;;;;;;3.40;1.27;;;;;;;;;;4955753;29;20054;-44
2021/05/23 07:00:55;;;;;;;2.50;1.55;;;;;;;;;;4956390;29;20042;-44
2021/05/23 07:03:22;;;;;;;4.75;1.40;;;;;;;;;;4956581;29;20042;-44
2021/05/23 07:05:49;;;;;;;6.20;1.58;;;;;;;;;;4955713;29;20020;-44
2021/05/23 07:08:18;;;;;;;5.18;1.42;;;;;;;;;;4956368;29;20027;-45
2021/05/23 07:10:45;;;;;;;3.13;1.30;;;;;;;;;;4954705;28;20062;-45
2021/05/23 07:13:12;;;;;;;3.05;1.17;;;;;;;;;;4956131;29;20024;-45
2021/05/23 07:15:39;;;;;;;4.38;1.20;;;;;;;;;;4955548;29;20054;-45
2021/05/23 07:18:06;;;;;;;1.88;1.08;;;;;;;;;;4956233;29;20033;-43
2021/05/23 07:20:33;;;;;;;3.60;1.25;;;;;;;;;;4955346;29;20027;-42
2021/05/23 07:23:00;;;;;;;3.55;1.60;;;;;;;;;;4955669;29;20023;-43
2021/05/23 07:25:27;;;;;;;5.15;1.10;;;;;;;;;;4955427;29;20055;-42
2021/05/23 07:27:54;;;;;;;3.63;1.10;;;;;;;;;;4955851;29;20027;-42
2021/05/23 07:30:21;;;;;;;4.55;1.25;;;;;;;;;;4955303;29;20387;-42
2021/05/23 07:32:48;;;;;;;2.97;1.15;;;;;;;;;;4955909;29;20128;-44
2021/05/23 07:35:15;;;;;;;2.28;1.20;;;;;;;;;;4955225;29;20487;-45
2021/05/23 07:37:42;;;;;;;3.60;1.10;;;;;;;;;;4955807;29;20024;-45
2021/05/23 07:40:10;;;;;;;1.98;0.85;;;;;;;;;;4955750;29;20031;-44
2021/05/23 07:42:37;;;;;;;3.83;1.13;;;;;;;;;;4955262;29;20047;-45
2021/05/23 07:45:05;;;;;;;4.03;1.50;;;;;;;;;;4955491;29;20031;-36
2021/05/23 07:47:32;;;;;;;2.58;1.10;;;;;;;;;;4955041;29;20026;-35
2021/05/23 07:49:59;;;;;;;4.55;1.13;;;;;;;;;;4955493;29;20023;-35
2021/05/23 07:52:26;;;;;;;2.47;1.00;;;;;;;;;;4954889;29;20035;-45
2021/05/23 07:54:53;;;;;;;3.30;1.10;;;;;;;;;;4955272;29;20515;-42
2021/05/23 07:57:20;;;;;;;1.88;0.82;;;;;;;;;;4954826;29;20043;-46
2021/05/23 07:59:47;;;;;;;1.73;0.80;;;;;;;;;;4955136;29;20050;-43
2021/05/23 08:02:14;;;;;;;2.20;0.93;;;;;;;;;;4954828;29;20392;-45
2021/05/23 08:04:41;;;;;;;3.38;0.90;;;;;;;;;;4955411;29;20031;-45
2021/05/23 08:07:08;;;;;;;1.77;0.80;;;;;;;;;;4954234;29;20488;-44
2021/05/23 08:09:35;;;;;;;1.88;0.70;;;;;;;;;;4954444;28;20463;-40
2021/05/23 08:12:03;;;;;;;2.33;1.10;;;;;;;;;;4954829;29;20364;-40
2021/05/23 08:14:30;;;;;;;2.63;0.98;;;;;;;;;;4954613;29;20024;-38
2021/05/23 08:16:57;;;;;;;2.67;0.70;;;;;;;;;;4954735;29;20054;-44
2021/05/23 08:19:24;;;;;;;1.63;0.90;;;;;;;;;;4954479;29;20059;-44
2021/05/23 08:21:51;;;;;;;1.73;0.82;;;;;;;;;;4946242;28;20081;-35
2021/05/23 08:24:18;;;;;;;0.93;0.60;;;;;;;;;;4954570;29;20118;-39
2021/05/23 08:26:45;;;;;;;1.98;0.57;;;;;;;;;;4954450;29;20074;-35
2021/05/23 08:29:12;;;;;;;1.63;0.65;;;;;;;;;;4954270;29;20054;-40
2021/05/23 08:31:39;;;;;;;3.00;1.10;;;;;;;;;;4954502;29;20154;-41
2021/05/23 08:34:06;;;;;;;1.70;0.70;;;;;;;;;;4954458;29;20034;-42
2021/05/23 08:36:33;;;;;;;3.10;0.80;;;;;;;;;;4954272;29;20106;-36
2021/05/23 08:39:00;;;;;;;1.73;0.75;;;;;;;;;;4952553;29;20042;-40
2021/05/23 08:41:27;;;;;;;2.00;0.70;;;;;;;;;;4954413;29;20035;-43
2021/05/23 08:43:55;;;;;;;1.05;0.65;;;;;;;;;;4954147;29;20400;-44
2021/05/23 08:46:22;;;;;;;2.50;0.70;;;;;;;;;;4954449;29;20483;-43
2021/05/23 08:48:50;;;;;;;2.85;0.88;;;;;;;;;;4954284;29;20038;-39
2021/05/23 08:51:17;;;;;;;1.98;0.90;;;;;;;;;;4953207;29;20073;-43
2021/05/23 08:53:45;;;;;;;1.20;0.82;;;;;;;;;;4954385;29;20415;-40
2021/05/23 08:56:12;;;;;;;1.55;0.70;;;;;;;;;;4953747;29;20035;-44
2021/05/23 08:58:39;;;;;;;1.42;0.60;;;;;;;;;;4954078;29;20502;-39
2021/05/23 09:01:06;;;;;;;0.85;0.52;;;;;;;;;;4953880;29;20502;-41
2021/05/23 09:03:33;;;;;;;2.72;0.80;;;;;;;;;;4954394;29;20106;-38
2021/05/23 09:06:00;;;;;;;1.42;0.57;;;;;;;;;;4953551;29;20051;-43
2021/05/23 09:08:29;;;;;;;2.00;0.80;;;;;;;;;;4954113;28;20023;-42
2021/05/23 09:11:06;;;;;;;1.42;0.50;;;;;;;;;;4953399;29;20047;-46
2021/05/23 09:13:37;;;;;;;2.63;0.65;;;;;;;;;;4954171;29;20024;-43
2021/05/23 09:16:13;;;;;;;0.95;0.52;;;;;;;;;;4953142;29;20023;-42
2021/05/23 09:18:44;;;;;;;1.67;0.65;;;;;;;;;;4953858;29;20046;-43
2021/05/23 09:21:12;;;;;;;1.40;0.40;;;;;;;;;;4953688;29;20059;-46
2021/05/23 09:23:57;;;;;;;0.85;0.60;;;;;;;;;;4954126;29;20031;-46
2021/05/23 09:26:25;;;;;;;1.42;0.68;;;;;;;;;;4953492;29;20027;-44
2021/05/23 09:28:53;;;;;;;1.08;0.60;;;;;;;;;;4954160;29;20020;-48
2021/05/23 09:31:22;;;;;;;3.20;0.80;;;;;;;;;;4953626;29;20027;-44
2021/05/23 09:33:51;;;;;;;1.00;0.60;;;;;;;;;;4956445;28;20106;-43
2021/05/23 09:36:18;;;;;;;2.67;0.60;;;;;;;;;;4957193;29;20030;-42
2021/05/23 09:39:11;;;;;;;1.55;0.50;;;;;;;;;;4957759;29;20039;-42
2021/05/23 09:41:39;;;;;;;0.98;0.50;;;;;;;;;;4954208;29;20055;-43
2021/05/23 09:44:13;;;;;;;0.85;0.50;;;;;;;;;;4957705;29;20379;-37
2021/05/23 09:46:53;;;;;;;1.67;0.50;;;;;;;;;;4957121;29;20058;-42
2021/05/23 09:49:20;;;;;;;1.55;0.50;;;;;;;;;;4957866;29;20066;-44
2021/05/23 09:51:51;;;;;;;0.90;0.47;;;;;;;;;;4957586;29;20098;-45
2021/05/23 09:54:18;;;;;;;1.35;0.57;;;;;;;;;;4957415;29;20027;-38
2021/05/23 09:56:45;;;;;;;1.38;0.63;;;;;;;;;;4957462;29;20098;-42
2021/05/23 09:59:22;;;;;;;1.55;0.57;;;;;;;;;;4957064;29;20456;-42
2021/05/23 10:01:49;;;;;;;0.93;0.52;;;;;;;;;;4957459;29;20070;-39
2021/05/23 10:04:20;;;;;;;2.10;0.70;;;;;;;;;;4956989;29;20027;-41
2021/05/23 10:06:57;;;;;;;1.15;0.57;;;;;;;;;;4957442;29;20031;-41
2021/05/23 10:09:25;;;;;;;0.90;0.40;;;;;;;;;;4956642;28;20499;-45
2021/05/23 10:11:52;;;;;;;1.50;0.50;;;;;;;;;;4957087;29;20027;-43
2021/05/23 10:14:19;;;;;;;0.77;0.43;;;;;;;;;;4956659;29;20023;-44
2021/05/23 10:16:51;;;;;;;1.35;0.60;;;;;;;;;;4957309;29;20027;-40
2021/05/23 10:19:26;;;;;;;0.60;0.40;;;;;;;;;;4956419;29;20082;-38
2021/05/23 10:21:54;;;;;;;0.52;0.30;;;;;;;;;;4957012;29;20055;-38
2021/05/23 10:24:27;;;;;;;1.00;0.57;;;;;;;;;;4956229;29;20038;-36
2021/05/23 10:26:55;;;;;;;0.88;0.50;;;;;;;;;;4955816;29;20031;-39
2021/05/23 10:29:23;;;;;;;0.80;0.45;;;;;;;;;;4955012;29;20031;-41
2021/05/23 10:31:50;;;;;;;2.38;0.40;;;;;;;;;;4956773;29;20491;-39
2021/05/23 10:34:17;;;;;;;0.82;0.40;;;;;;;;;;4956458;29;20067;-38
2021/05/23 10:36:46;;;;;;;2.83;0.77;;;;;;;;;;4956901;29;20023;-43
2021/05/23 10:39:14;;;;;;;1.35;0.47;;;;;;;;;;4955726;29;20084;-38
2021/05/23 10:41:42;;;;;;;0.43;0.30;;;;;;;;;;4956873;29;20027;-40
2021/05/23 10:44:11;;;;;;;0.77;0.40;;;;;;;;;;4956066;28;20090;-42
2021/05/23 10:46:50;;;;;;;1.27;0.50;;;;;;;;;;4955704;29;20175;-39
2021/05/23 10:49:17;;;;;;;1.20;0.35;;;;;;;;;;4956210;29;20023;-43
2021/05/23 10:52:10;;;;;;;0.73;0.40;;;;;;;;;;4955817;29;20020;-43
2021/05/23 10:54:36;;;;;;;;;;;;;;;;;;4937268;29;20419;-44
2021/05/23 10:57:04;;;;;;;2.28;0.40;;;;;;;;;;4956158;29;20326;-41
2021/05/23 10:59:32;;;;;;;1.63;0.40;;;;;;;;;;4956023;29;20039;-41
2021/05/23 11:02:00;;;;;;;0.73;0.30;;;;;;;;;;4955961;29;20023;-43
2021/05/23 11:04:39;;;;;;;0.38;0.28;;;;;;;;;;4956299;29;20034;-41
2021/05/23 11:07:13;;;;;;;0.77;0.45;;;;;;;;;;4955988;29;20027;-43
2021/05/23 11:09:43;;;;;;;1.35;0.30;;;;;;;;;;4955765;28;20150;-42
2021/05/23 11:12:13;;;;;;;0.47;0.30;;;;;;;;;;4956226;29;20019;-41
2021/05/23 11:14:41;;;;;;;0.75;0.32;;;;;;;;;;4955863;29;20031;-41
2021/05/23 11:17:10;;;;;;;1.33;0.40;;;;;;;;;;4955585;29;20036;-38
2021/05/23 11:19:37;;;;;;;1.48;0.50;;;;;;;;;;4955805;29;20486;-42
2021/05/23 11:22:04;;;;;;;1.08;0.45;;;;;;;;;;4955579;29;20102;-38
2021/05/23 11:24:32;;;;;;;1.08;0.40;;;;;;;;;;4956118;29;20031;-37
2021/05/23 11:27:19;;;;;;;0.43;0.28;;;;;;;;;;4955461;29;20026;-45
2021/05/23 11:29:47;;;;;;;2.47;0.50;;;;;;;;;;4955672;29;20031;-44
2021/05/23 11:32:17;;;;;;;0.57;0.30;;;;;;;;;;4955355;29;20027;-43
2021/05/23 11:34:45;;;;;;;0.63;0.35;;;;;;;;;;4955916;29;20035;-40
2021/05/23 11:37:12;;;;;;;1.23;0.28;;;;;;;;;;4955440;29;20114;-40
2021/05/23 11:39:39;;;;;;;0.68;0.40;;;;;;;;;;4953963;29;20126;-43
2021/05/23 11:42:06;;;;;;;1.02;0.40;;;;;;;;;;4949373;29;20491;-41
2021/05/23 11:44:35;;;;;;;0.45;0.40;;;;;;;;;;4935023;29;20039;-43
2021/05/23 11:47:02;;;;;;;0.90;0.32;;;;;;;;;;4936002;29;20019;-44
2021/05/23 11:49:30;;;;;;;0.93;0.50;;;;;;;;;;4936357;29;20480;-42
2021/05/23 11:51:59;;;;;;;0.77;0.40;;;;;;;;;;4936228;29;20498;-38
2021/05/23 11:54:26;;;;;;;0.45;0.40;;;;;;;;;;4935856;29;20034;-44
2021/05/23 11:56:53;;;;;;;1.27;0.32;;;;;;;;;;4935940;29;20020;-42
2021/05/23 11:59:20;;;;;;;0.57;0.30;;;;;;;;;;4935444;29;20047;-37
2021/05/23 12:01:55;;;;;;;0.35;0.30;;;;;;;;;;4936124;29;20437;-43
2021/05/23 12:04:22;;;;;;;0.82;0.30;;;;;;;;;;4935253;29;20544;-43
2021/05/23 12:06:51;;;;;;;1.65;0.60;;;;;;;;;;4936179;29;20031;-37
2021/05/23 12:09:18;;;;;;;1.20;0.50;;;;;;;;;;4934896;29;20063;-42
2021/05/23 12:11:55;;;;;;;0.40;0.30;;;;;;;;;;4935694;29;20136;-36
2021/05/23 12:14:29;;;;;;;0.30;0.20;;;;;;;;;;4935275;29;20053;-41
2021/05/23 12:17:02;;;;;;;0.88;0.30;;;;;;;;;;4936060;29;20035;-39
2021/05/23 12:19:48;;;;;;;0.85;0.30;;;;;;;;;;4935100;29;20503;-40
2021/05/23 12:22:15;;;;;;;1.08;0.40;;;;;;;;;;4935755;29;20396;-44
2021/05/23 12:24:42;;;;;;;0.10;0.10;;;;;;;;;;4935224;29;20040;-37
2021/05/23 12:27:15;;;;;;;0.30;0.30;;;;;;;;;;4935704;29;20035;-41
2021/05/23 12:29:42;;;;;;;0.55;0.22;;;;;;;;;;4935063;29;20035;-40
2021/05/23 12:32:09;;;;;;;1.50;0.30;;;;;;;;;;4935637;29;20035;-40
2021/05/23 12:34:43;;;;;;;1.08;0.50;;;;;;;;;;4934876;29;20055;-37
2021/05/23 12:37:10;;;;;;;0.70;0.30;;;;;;;;;;4935674;29;20475;-41
2021/05/23 12:39:37;;;;;;;0.55;0.30;;;;;;;;;;4934768;29;20130;-40
2021/05/23 12:42:05;;;;;;;1.23;0.40;;;;;;;;;;4935354;29;20030;-37
2021/05/23 12:44:33;;;;;;;0.35;0.28;;;;;;;;;;4935490;29;20559;-40
2021/05/23 12:47:13;;;;;;;0.40;0.30;;;;;;;;;;4935096;29;20046;-38
2021/05/23 12:49:45;;;;;;;1.90;0.30;;;;;;;;;;4935136;29;20102;-39
2021/05/23 12:52:16;;;;;;;0.40;0.30;;;;;;;;;;4934852;29;20086;-37
2021/05/23 12:54:43;;;;;;;0.82;0.47;;;;;;;;;;4935225;29;20400;-40
2021/05/23 12:57:12;;;;;;;0.88;0.35;;;;;;;;;;4935006;29;20449;-40
2021/05/23 12:59:43;;;;;;;1.05;0.30;;;;;;;;;;4934837;29;20031;-35
2021/05/23 13:02:11;;;;;;;0.98;0.40;;;;;;;;;;4934768;29;20024;-41
2021/05/23 13:04:39;;;;;;;1.08;0.40;;;;;;;;;;4935285;29;20032;-39
2021/05/23 13:07:08;;;;;;;1.33;0.40;;;;;;;;;;4925020;29;20055;-39
2021/05/23 13:09:42;;;;;;;0.68;0.20;;;;;;;;;;4914484;29;20389;-37
2021/05/23 13:12:13;;;;;;;0.43;0.20;;;;;;;;;;4915517;29;20036;-45
2021/05/23 13:14:51;;;;;;;0.17;0.10;;;;;;;;;;4920295;29;20040;-45
2021/05/23 13:17:24;;;;;;;1.10;0.30;;;;;;;;;;4934738;29;20107;-41
2021/05/23 13:19:51;;;;;;;0.20;0.20;;;;;;;;;;4934959;29;20404;-43
2021/05/23 13:22:18;;;;;;;0.90;0.30;;;;;;;;;;4934213;29;20063;-39
2021/05/23 13:24:46;;;;;;;0.10;0.10;;;;;;;;;;4933984;29;20570;-37
2021/05/23 13:27:17;;;;;;;1.45;0.30;;;;;;;;;;4929923;29;20392;-37
2021/05/23 13:29:44;;;;;;;0.40;0.20;;;;;;;;;;4933289;29;20032;-44
2021/05/23 13:32:11;;;;;;;0.52;0.30;;;;;;;;;;4933161;29;20127;-37
2021/05/23 13:34:38;;;;;;;0.28;0.20;;;;;;;;;;4934012;29;20111;-40
2021/05/23 13:37:05;;;;;;;0.28;0.20;;;;;;;;;;4933309;29;20027;-41
2021/05/23 13:39:33;;;;;;;0.47;0.20;;;;;;;;;;4933258;29;20036;-35
2021/05/23 13:42:00;;;;;;;0.30;0.20;;;;;;;;;;4934102;29;20079;-35
2021/05/23 13:44:27;;;;;;;0.25;0.17;;;;;;;;;;4932612;29;20071;-34
2021/05/23 13:46:54;;;;;;;1.05;0.30;;;;;;;;;;4932805;29;20051;-37
2021/05/23 13:49:21;;;;;;;0.22;0.17;;;;;;;;;;4932080;29;20035;-43
2021/05/23 13:51:49;;;;;;;0.63;0.20;;;;;;;;;;4934029;29;20454;-41
2021/05/23 13:54:16;;;;;;;0.30;0.20;;;;;;;;;;4931616;29;20424;-42
2021/05/23 13:56:43;;;;;;;0.63;0.20;;;;;;;;;;4926400;29;20027;-35
2021/05/23 13:59:10;;;;;;;0.70;0.30;;;;;;;;;;4930621;29;20028;-39
2021/05/23 14:01:46;;;;;;;0.52;0.30;;;;;;;;;;4931306;29;20024;-37
2021/05/23 14:04:17;;;;;;;0.20;0.20;;;;;;;;;;4930296;29;20539;-42
2021/05/23 14:06:45;;;;;;;2.00;0.30;;;;;;;;;;4930809;29;20044;-39
2021/05/23 14:09:12;;;;;;;0.52;0.30;;;;;;;;;;4930886;29;20040;-36
2021/05/23 14:11:39;;;;;;;2.42;0.30;;;;;;;;;;4931571;29;20035;-35
2021/05/23 14:14:06;;;;;;;2.65;0.28;;;;;;;;;;4931532;29;20015;-43
2021/05/23 14:16:34;;;;;;;0.85;0.40;;;;;;;;;;4931591;29;20024;-43
2021/05/23 14:19:01;;;;;;;2.33;0.43;;;;;;;;;;4932552;29;20036;-43
2021/05/23 14:21:28;;;;;;;1.58;0.50;;;;;;;;;;4934946;29;20032;-43
2021/05/23 14:23:55;;;;;;;2.05;0.30;;;;;;;;;;4935366;29;20032;-42
2021/05/23 14:26:24;;;;;;;3.28;0.40;;;;;;;;;;4934071;29;20027;-40
2021/05/23 14:28:52;;;;;;;0.90;0.22;;;;;;;;;;4935023;29;20333;-44
2021/05/23 14:31:21;;;;;;;1.55;0.50;;;;;;;;;;4935062;29;20435;-41
2021/05/23 14:33:49;;;;;;;0.93;0.40;;;;;;;;;;4932067;29;20051;-43
2021/05/23 14:36:16;;;;;;;5.55;0.40;;;;;;;;;;4932696;29;20034;-40
2021/05/23 14:38:44;;;;;;;1.17;0.35;;;;;;;;;;4928837;29;20036;-45
2021/05/23 14:41:11;;;;;;;6.80;0.63;;;;;;;;;;4931469;29;20823;-41
2021/05/23 14:43:39;;;;;;;2.97;0.40;;;;;;;;;;4935182;29;20032;-43
2021/05/23 14:46:08;;;;;;;2.92;0.52;;;;;;;;;;4931258;29;20031;-43